Time;durP1;ratioP1;P1;durP2;ratioP2;P2;SDS_P1;SDS_P2;PMS_P1;PMS_P2;Temp;Humidity;BMP_temperature;BMP_pressure;BME280_temperature;BME280_humidity;BME280_pressure;Samples;Min_cycle;Max_cycle;Signal;HPM_P1;HPM_P2
2022/10/11 00:02:10;;;;;;;98.95;31.52;;;;;;;;;;5055387;28;20207;-48
2022/10/11 00:04:36;;;;;;;38.15;15.15;;;;;;;;;;5055476;28;20208;-47
2022/10/11 00:07:03;;;;;;;67.25;24.65;;;;;;;;;;5055527;28;20527;-48
2022/10/11 00:09:30;;;;;;;31.80;12.50;;;;;;;;;;5055539;28;20277;-48
2022/10/11 00:11:57;;;;;;;38.83;15.55;;;;;;;;;;5055153;28;20218;-47
2022/10/11 00:14:25;;;;;;;23.58;10.63;;;;;;;;;;5055375;28;20223;-47
2022/10/11 00:16:52;;;;;;;24.10;11.18;;;;;;;;;;5055319;28;20204;-47
2022/10/11 00:19:19;;;;;;;15.52;7.78;;;;;;;;;;5055321;28;20208;-47
2022/10/11 00:21:46;;;;;;;17.02;7.85;;;;;;;;;;5054992;28;20200;-48
2022/10/11 00:24:14;;;;;;;14.95;8.85;;;;;;;;;;5054893;28;20197;-47
2022/10/11 00:26:42;;;;;;;10.45;6.72;;;;;;;;;;5054270;28;20414;-48
2022/10/11 00:29:13;;;;;;;28.83;18.67;;;;;;;;;;5054928;28;20653;-48
2022/10/11 00:31:40;;;;;;;22.98;12.32;;;;;;;;;;5054898;28;20677;-48
2022/10/11 00:34:07;;;;;;;50.30;16.67;;;;;;;;;;5054786;28;20207;-48
2022/10/11 00:36:34;;;;;;;69.57;24.67;;;;;;;;;;5055137;28;20215;-47
2022/10/11 00:39:02;;;;;;;49.90;18.95;;;;;;;;;;5054925;28;20204;-48
2022/10/11 00:41:29;;;;;;;31.23;13.38;;;;;;;;;;5054825;28;20310;-48
2022/10/11 00:44:10;;;;;;;19.95;9.35;;;;;;;;;;5055527;28;20204;-48
2022/10/11 00:46:37;;;;;;;17.13;9.55;;;;;;;;;;5054752;28;20564;-47
2022/10/11 00:49:12;;;;;;;14.15;7.25;;;;;;;;;;5054143;28;20204;-48
2022/10/11 00:51:48;;;;;;;11.88;5.60;;;;;;;;;;5054754;28;20199;-47
2022/10/11 00:54:18;;;;;;;12.77;6.70;;;;;;;;;;5053744;28;20204;-47
2022/10/11 00:56:48;;;;;;;9.85;4.78;;;;;;;;;;5054663;28;20657;-47
2022/10/11 00:59:21;;;;;;;12.75;5.47;;;;;;;;;;5054933;28;20204;-48
2022/10/11 01:01:48;;;;;;;16.45;9.77;;;;;;;;;;5056015;28;20265;-47
2022/10/11 01:04:15;;;;;;;14.75;9.23;;;;;;;;;;5061206;28;20210;-51
2022/10/11 01:06:42;;;;;;;34.15;13.00;;;;;;;;;;5061370;28;20227;-47
2022/10/11 01:09:10;;;;;;;51.67;18.60;;;;;;;;;;5060352;28;20586;-47
2022/10/11 01:11:40;;;;;;;47.63;17.33;;;;;;;;;;5060311;28;20207;-47
2022/10/11 01:15:04;;;;;;;33.90;14.73;;;;;;;;;;5060666;28;20642;-47
2022/10/11 01:17:34;;;;;;;36.20;13.95;;;;;;;;;;4965275;28;20269;-47
2022/10/11 01:20:25;;;;;;;16.33;8.38;;;;;;;;;;4980793;28;20282;-48
2022/10/11 01:23:29;;;;;;;13.10;7.22;;;;;;;;;;4980959;28;20203;-47
2022/10/11 01:26:17;;;;;;;12.43;7.03;;;;;;;;;;4980640;28;20242;-48
2022/10/11 01:28:50;;;;;;;11.25;5.20;;;;;;;;;;4980645;28;20206;-47
2022/10/11 01:31:51;;;;;;;12.23;6.53;;;;;;;;;;4980556;28;20207;-48
2022/10/11 01:34:20;;;;;;;27.35;17.58;;;;;;;;;;4980558;28;20634;-48
2022/10/11 01:37:13;;;;;;;27.70;17.38;;;;;;;;;;4980669;28;20703;-47
2022/10/11 01:39:47;;;;;;;28.92;17.70;;;;;;;;;;4964565;28;20231;-48
2022/10/11 01:42:15;;;;;;;68.05;22.33;;;;;;;;;;4980458;28;20639;-47
2022/10/11 01:44:45;;;;;;;84.45;26.77;;;;;;;;;;4980561;28;20206;-47
2022/10/11 01:47:13;;;;;;;43.92;15.68;;;;;;;;;;4994224;28;20666;-48
2022/10/11 01:49:40;;;;;;;24.42;9.98;;;;;;;;;;5060978;28;20200;-49
2022/10/11 01:52:09;;;;;;;30.40;11.95;;;;;;;;;;5061182;28;20573;-47
2022/10/11 01:54:49;;;;;;;21.30;11.15;;;;;;;;;;5060791;28;20630;-47
2022/10/11 01:57:38;;;;;;;14.52;6.10;;;;;;;;;;5060663;28;20200;-47
2022/10/11 02:00:18;;;;;;;9.82;5.85;;;;;;;;;;5060896;28;20265;-49
2022/10/11 02:03:19;;;;;;;13.18;7.97;;;;;;;;;;5061599;28;20210;-47
2022/10/11 02:05:48;;;;;;;14.32;7.57;;;;;;;;;;5046340;28;20306;-47
2022/10/11 02:08:41;;;;;;;17.55;9.30;;;;;;;;;;5060907;28;20207;-49
2022/10/11 02:11:27;;;;;;;42.67;23.27;;;;;;;;;;5060367;28;20218;-47
2022/10/11 02:14:17;;;;;;;47.90;26.63;;;;;;;;;;5056938;28;20188;-47
2022/10/11 02:16:53;;;;;;;61.60;31.98;;;;;;;;;;5057714;28;20231;-47
2022/10/11 02:19:25;;;;;;;70.03;36.10;;;;;;;;;;5057652;28;20203;-47
2022/10/11 02:21:55;;;;;;;39.78;22.05;;;;;;;;;;5056930;28;20200;-48
2022/10/11 02:24:33;;;;;;;27.08;13.20;;;;;;;;;;5056733;28;20180;-48
2022/10/11 02:27:02;;;;;;;65.57;26.55;;;;;;;;;;5056287;28;20281;-47
2022/10/11 02:29:32;;;;;;;55.20;20.55;;;;;;;;;;5056482;28;20223;-48
2022/10/11 02:31:59;;;;;;;36.85;13.52;;;;;;;;;;5057065;28;20208;-47
2022/10/11 02:34:26;;;;;;;45.50;17.88;;;;;;;;;;5057032;28;20287;-49
2022/10/11 02:37:34;;;;;;;19.63;9.25;;;;;;;;;;5057314;28;20212;-48
2022/10/11 02:40:06;;;;;;;21.17;11.38;;;;;;;;;;4976295;28;20217;-49
2022/10/11 02:42:37;;;;;;;14.93;7.57;;;;;;;;;;4961014;28;20571;-47
2022/10/11 02:45:37;;;;;;;27.77;15.13;;;;;;;;;;4976606;28;20239;-48
2022/10/11 02:48:06;;;;;;;12.93;8.50;;;;;;;;;;4900299;29;20209;-48
2022/10/11 02:50:32;;;;;;;12.07;6.82;;;;;;;;;;4900125;29;20633;-48
2022/10/11 02:52:59;;;;;;;14.73;6.85;;;;;;;;;;4900405;29;20201;-48
2022/10/11 02:55:26;;;;;;;13.35;7.18;;;;;;;;;;4900058;29;20575;-47
2022/10/11 02:57:53;;;;;;;21.58;10.50;;;;;;;;;;4900405;29;20205;-48
2022/10/11 03:00:20;;;;;;;14.43;7.35;;;;;;;;;;4900487;29;20209;-47
2022/10/11 03:02:47;;;;;;;14.45;7.43;;;;;;;;;;4899994;29;20609;-48
2022/10/11 03:05:14;;;;;;;18.48;9.00;;;;;;;;;;4900169;29;20641;-47
2022/10/11 03:07:41;;;;;;;28.90;15.48;;;;;;;;;;4899981;29;20213;-48
2022/10/11 03:10:11;;;;;;;20.33;8.60;;;;;;;;;;4899783;29;20205;-48
2022/10/11 03:12:38;;;;;;;27.95;9.55;;;;;;;;;;4899991;29;20209;-49
2022/10/11 03:15:05;;;;;;;42.60;13.07;;;;;;;;;;4900068;29;20216;-48
2022/10/11 03:17:32;;;;;;;32.80;10.98;;;;;;;;;;4990754;28;20272;-47
2022/10/11 03:20:06;;;;;;;17.25;8.07;;;;;;;;;;4995509;28;20202;-47
2022/10/11 03:22:33;;;;;;;14.10;7.07;;;;;;;;;;4998198;28;20237;-47
2022/10/11 03:25:00;;;;;;;13.60;6.50;;;;;;;;;;5056538;28;20206;-48
2022/10/11 03:27:31;;;;;;;13.63;6.75;;;;;;;;;;5056224;28;20231;-49
2022/10/11 03:29:59;;;;;;;12.05;6.80;;;;;;;;;;5056255;28;20212;-49
2022/10/11 03:32:26;;;;;;;14.73;7.60;;;;;;;;;;5065749;28;20214;-47
2022/10/11 03:34:53;;;;;;;12.93;6.50;;;;;;;;;;5069900;28;20207;-47
2022/10/11 03:37:20;;;;;;;13.52;6.80;;;;;;;;;;5056186;28;20208;-48
2022/10/11 03:39:47;;;;;;;14.50;7.20;;;;;;;;;;5063631;28;20534;-47
2022/10/11 03:42:14;;;;;;;12.65;6.82;;;;;;;;;;5060096;28;20331;-47
2022/10/11 03:44:41;;;;;;;19.17;7.80;;;;;;;;;;5065014;28;20539;-47
2022/10/11 03:47:08;;;;;;;16.55;7.82;;;;;;;;;;5061488;28;20230;-49
2022/10/11 03:49:35;;;;;;;11.38;7.22;;;;;;;;;;5069326;28;20225;-50
2022/10/11 03:52:09;;;;;;;12.55;6.53;;;;;;;;;;5087591;28;20187;-48
2022/10/11 03:54:36;;;;;;;13.43;6.72;;;;;;;;;;5084421;28;20579;-48
2022/10/11 03:57:03;;;;;;;14.95;6.55;;;;;;;;;;5080827;28;20230;-51
2022/10/11 03:59:30;;;;;;;14.02;6.60;;;;;;;;;;5080264;28;20242;-48
2022/10/11 04:01:57;;;;;;;19.17;7.65;;;;;;;;;;5082677;28;20214;-48
2022/10/11 04:04:25;;;;;;;13.63;7.40;;;;;;;;;;5076077;28;20650;-49
2022/10/11 04:06:52;;;;;;;14.10;8.23;;;;;;;;;;5064412;28;20234;-48
2022/10/11 04:09:19;;;;;;;16.77;8.13;;;;;;;;;;5074047;28;20318;-47
2022/10/11 04:11:46;;;;;;;14.68;8.32;;;;;;;;;;5074433;28;20302;-53
2022/10/11 04:14:13;;;;;;;11.32;6.47;;;;;;;;;;5056857;28;20798;-48
2022/10/11 04:16:40;;;;;;;13.40;6.15;;;;;;;;;;5074612;28;20546;-47
2022/10/11 04:19:07;;;;;;;10.40;6.25;;;;;;;;;;5074240;28;20817;-54
2022/10/11 04:21:34;;;;;;;14.23;6.18;;;;;;;;;;5074323;28;20253;-47
2022/10/11 04:24:01;;;;;;;9.63;5.32;;;;;;;;;;5074257;28;20227;-48
2022/10/11 04:26:28;;;;;;;36.78;12.90;;;;;;;;;;5074104;28;20230;-49
2022/10/11 04:28:55;;;;;;;22.08;9.32;;;;;;;;;;5073749;28;20223;-47
2022/10/11 04:31:22;;;;;;;29.95;10.07;;;;;;;;;;5073898;28;20242;-49
2022/10/11 04:33:49;;;;;;;17.15;6.47;;;;;;;;;;5074314;28;20231;-52
2022/10/11 04:36:16;;;;;;;18.85;7.95;;;;;;;;;;5073530;28;20223;-47
2022/10/11 04:38:43;;;;;;;14.82;7.90;;;;;;;;;;5073771;28;20306;-47
2022/10/11 04:41:12;;;;;;;12.65;6.57;;;;;;;;;;5063076;28;20293;-48
2022/10/11 04:43:39;;;;;;;18.00;12.82;;;;;;;;;;5053255;28;20235;-48
2022/10/11 04:46:07;;;;;;;15.18;6.80;;;;;;;;;;5052435;28;20255;-49
2022/10/11 04:48:35;;;;;;;12.13;5.55;;;;;;;;;;5053373;28;20314;-47
2022/10/11 04:51:02;;;;;;;10.23;5.82;;;;;;;;;;5053937;28;20228;-47
2022/10/11 04:53:29;;;;;;;14.32;6.10;;;;;;;;;;5071604;28;20214;-54
2022/10/11 04:56:00;;;;;;;12.30;5.85;;;;;;;;;;5077643;28;20669;-51
2022/10/11 04:58:29;;;;;;;9.27;6.00;;;;;;;;;;5080274;28;20211;-49
2022/10/11 05:00:56;;;;;;;11.60;5.78;;;;;;;;;;5073546;28;20227;-47
2022/10/11 05:03:24;;;;;;;11.30;5.55;;;;;;;;;;5073383;28;20238;-47
2022/10/11 05:05:52;;;;;;;15.30;6.18;;;;;;;;;;5073551;28;20227;-46
2022/10/11 05:08:19;;;;;;;10.45;6.47;;;;;;;;;;5073621;28;20231;-48
2022/10/11 05:10:59;;;;;;;10.50;5.70;;;;;;;;;;5083237;28;20222;-48
2022/10/11 05:13:27;;;;;;;15.00;6.10;;;;;;;;;;5077840;28;20218;-49
2022/10/11 05:15:54;;;;;;;11.93;5.45;;;;;;;;;;5088665;28;20221;-47
2022/10/11 05:18:21;;;;;;;10.98;6.55;;;;;;;;;;5083663;28;20654;-47
2022/10/11 05:20:57;;;;;;;12.10;6.13;;;;;;;;;;5081327;28;20222;-49
2022/10/11 05:23:24;;;;;;;12.70;5.78;;;;;;;;;;5081737;28;20681;-50
2022/10/11 05:25:51;;;;;;;14.18;6.40;;;;;;;;;;5078935;28;20648;-49
2022/10/11 05:28:17;;;;;;;11.20;7.15;;;;;;;;;;5081919;28;20313;-47
2022/10/11 05:30:45;;;;;;;11.77;6.35;;;;;;;;;;5083129;28;20231;-51
2022/10/11 05:33:12;;;;;;;11.20;6.00;;;;;;;;;;5076906;28;20211;-52
2022/10/11 05:35:39;;;;;;;13.48;6.18;;;;;;;;;;5087763;28;20226;-50
2022/10/11 05:38:07;;;;;;;13.07;6.32;;;;;;;;;;5093947;28;20231;-47
2022/10/11 05:40:36;;;;;;;11.98;6.70;;;;;;;;;;5093331;28;20235;-49
2022/10/11 05:43:03;;;;;;;13.85;6.22;;;;;;;;;;5085136;28;20223;-47
2022/10/11 05:45:31;;;;;;;10.80;6.57;;;;;;;;;;5073130;28;20231;-51
2022/10/11 05:47:58;;;;;;;12.30;6.68;;;;;;;;;;5073758;28;20231;-53
2022/10/11 05:50:25;;;;;;;10.68;6.80;;;;;;;;;;5076415;28;20220;-50
2022/10/11 05:52:52;;;;;;;14.70;6.38;;;;;;;;;;5077116;28;20223;-54
2022/10/11 05:55:19;;;;;;;10.82;6.72;;;;;;;;;;5076798;28;20215;-56
2022/10/11 05:57:47;;;;;;;13.98;7.15;;;;;;;;;;5076627;28;20798;-53
2022/10/11 06:00:14;;;;;;;15.25;7.55;;;;;;;;;;5076759;28;20223;-53
2022/10/11 06:02:41;;;;;;;15.15;7.25;;;;;;;;;;5076886;28;20239;-50
2022/10/11 06:05:08;;;;;;;11.45;6.57;;;;;;;;;;5076578;28;20765;-54
2022/10/11 06:07:36;;;;;;;10.95;6.15;;;;;;;;;;5077115;28;20292;-56
2022/10/11 06:10:04;;;;;;;11.23;7.70;;;;;;;;;;5077735;28;20268;-56
2022/10/11 06:12:31;;;;;;;13.35;6.70;;;;;;;;;;5077418;28;20626;-52
2022/10/11 06:14:58;;;;;;;10.88;6.97;;;;;;;;;;5078140;28;20214;-54
2022/10/11 06:17:26;;;;;;;11.00;7.00;;;;;;;;;;5034850;28;20198;-54
2022/10/11 06:19:53;;;;;;;15.35;7.25;;;;;;;;;;5087434;28;20261;-53
2022/10/11 06:22:20;;;;;;;13.45;6.65;;;;;;;;;;5084193;28;20539;-51
2022/10/11 06:24:46;;;;;;;11.23;6.78;;;;;;;;;;5086701;28;20282;-54
2022/10/11 06:27:13;;;;;;;13.15;7.10;;;;;;;;;;5087890;28;20246;-50
2022/10/11 06:29:40;;;;;;;17.90;7.40;;;;;;;;;;5083089;28;20241;-51
2022/10/11 06:32:07;;;;;;;13.82;7.60;;;;;;;;;;5086046;28;20187;-52
2022/10/11 06:34:34;;;;;;;12.90;7.50;;;;;;;;;;5090654;28;20195;-50
2022/10/11 06:37:02;;;;;;;14.95;7.90;;;;;;;;;;5091011;28;20230;-53
2022/10/11 06:39:29;;;;;;;12.07;7.45;;;;;;;;;;5082990;28;20261;-54
2022/10/11 06:41:56;;;;;;;13.70;7.55;;;;;;;;;;5079713;28;20230;-51
2022/10/11 06:44:25;;;;;;;13.18;7.85;;;;;;;;;;5087281;28;20277;-55
2022/10/11 06:46:52;;;;;;;34.45;19.30;;;;;;;;;;5079272;28;20233;-56
2022/10/11 06:49:19;;;;;;;64.68;32.10;;;;;;;;;;5084650;28;20199;-54
2022/10/11 06:51:49;;;;;;;18.52;9.98;;;;;;;;;;5087588;28;20192;-54
2022/10/11 06:54:16;;;;;;;18.23;9.50;;;;;;;;;;5088751;28;20192;-56
2022/10/11 06:56:44;;;;;;;14.73;8.55;;;;;;;;;;5087133;28;20578;-53
2022/10/11 06:59:12;;;;;;;15.35;8.88;;;;;;;;;;5082024;28;20588;-51
2022/10/11 07:01:39;;;;;;;16.83;8.73;;;;;;;;;;5087927;28;20211;-51
2022/10/11 07:04:22;;;;;;;14.48;8.57;;;;;;;;;;5082176;28;20648;-55
2022/10/11 07:06:48;;;;;;;18.13;9.02;;;;;;;;;;5087187;28;20302;-51
2022/10/11 07:09:16;;;;;;;22.23;7.97;;;;;;;;;;5082604;28;20191;-53
2022/10/11 07:11:43;;;;;;;15.90;9.30;;;;;;;;;;5087427;28;20203;-54
2022/10/11 07:14:10;;;;;;;14.45;10.07;;;;;;;;;;5083863;28;20197;-55
2022/10/11 07:16:37;;;;;;;15.75;8.95;;;;;;;;;;5082509;28;20791;-49
2022/10/11 07:19:06;;;;;;;18.80;10.32;;;;;;;;;;5084234;28;20199;-51
2022/10/11 07:21:34;;;;;;;16.80;10.00;;;;;;;;;;5080057;28;20212;-57
2022/10/11 07:24:02;;;;;;;21.15;10.88;;;;;;;;;;5087435;28;20203;-51
2022/10/11 07:26:29;;;;;;;17.17;10.52;;;;;;;;;;5096581;28;20195;-51
2022/10/11 07:29:05;;;;;;;14.93;10.02;;;;;;;;;;5083383;28;20715;-50
2022/10/11 07:31:32;;;;;;;17.27;10.18;;;;;;;;;;5073202;28;20207;-51
2022/10/11 07:33:59;;;;;;;15.30;10.40;;;;;;;;;;5076215;28;20504;-56
2022/10/11 07:36:26;;;;;;;18.63;11.10;;;;;;;;;;5076327;28;20226;-54
2022/10/11 07:38:53;;;;;;;18.13;10.90;;;;;;;;;;5075744;28;20226;-51
2022/10/11 07:41:20;;;;;;;22.63;13.05;;;;;;;;;;5075840;28;20281;-50
2022/10/11 07:43:48;;;;;;;19.40;11.15;;;;;;;;;;5075924;28;20208;-51
2022/10/11 07:46:17;;;;;;;19.33;11.80;;;;;;;;;;5075684;28;20646;-50
2022/10/11 07:48:44;;;;;;;20.10;11.90;;;;;;;;;;5075648;28;20231;-51
2022/10/11 07:51:17;;;;;;;18.13;12.10;;;;;;;;;;5075732;28;20195;-52
2022/10/11 07:53:46;;;;;;;21.27;13.07;;;;;;;;;;5075757;28;20238;-56
2022/10/11 07:56:17;;;;;;;20.00;11.45;;;;;;;;;;5075571;28;20207;-50
2022/10/11 07:58:48;;;;;;;20.73;12.02;;;;;;;;;;5075453;28;20245;-56
2022/10/11 08:01:16;;;;;;;19.27;11.65;;;;;;;;;;5075350;28;20245;-55
2022/10/11 08:03:43;;;;;;;19.38;12.32;;;;;;;;;;5075498;28;20560;-49
2022/10/11 08:06:11;;;;;;;19.88;12.23;;;;;;;;;;5075348;28;20222;-51
2022/10/11 08:08:39;;;;;;;21.17;12.48;;;;;;;;;;5057941;28;20223;-54
2022/10/11 08:11:06;;;;;;;23.52;13.65;;;;;;;;;;5074789;28;20230;-53
2022/10/11 08:13:33;;;;;;;23.00;12.60;;;;;;;;;;5074903;28;20895;-52
2022/10/11 08:16:08;;;;;;;22.33;13.38;;;;;;;;;;5075030;28;20621;-52
2022/10/11 08:18:35;;;;;;;27.25;13.82;;;;;;;;;;5075194;28;20281;-56
2022/10/11 08:21:08;;;;;;;23.73;13.07;;;;;;;;;;5075275;28;20218;-46
2022/10/11 08:23:35;;;;;;;23.17;13.23;;;;;;;;;;5074878;28;20234;-47
2022/10/11 08:26:03;;;;;;;27.02;12.57;;;;;;;;;;5074832;28;20291;-47
2022/10/11 08:28:31;;;;;;;21.33;13.07;;;;;;;;;;5075084;28;20231;-48
2022/10/11 08:30:58;;;;;;;19.52;12.80;;;;;;;;;;5075058;28;20219;-49
2022/10/11 08:33:25;;;;;;;23.67;13.35;;;;;;;;;;5074983;28;20196;-49
2022/10/11 08:35:53;;;;;;;20.08;12.40;;;;;;;;;;5074872;28;20203;-52
2022/10/11 08:38:20;;;;;;;22.60;12.20;;;;;;;;;;5074770;28;20208;-47
2022/10/11 08:40:49;;;;;;;20.25;13.32;;;;;;;;;;5074915;28;20297;-47
2022/10/11 08:43:29;;;;;;;26.15;12.98;;;;;;;;;;5075001;28;20218;-50
2022/10/11 08:45:59;;;;;;;18.60;12.48;;;;;;;;;;5074605;28;20700;-48
2022/10/11 08:48:42;;;;;;;26.85;12.57;;;;;;;;;;5057320;28;20238;-49
2022/10/11 08:51:24;;;;;;;20.30;12.55;;;;;;;;;;5079675;28;20179;-49
2022/10/11 08:54:06;;;;;;;17.88;11.52;;;;;;;;;;5078516;28;20194;-48
2022/10/11 08:56:38;;;;;;;21.50;13.25;;;;;;;;;;5084130;28;20200;-47
2022/10/11 08:59:11;;;;;;;23.25;12.38;;;;;;;;;;5082035;28;20195;-47
2022/10/11 09:02:20;;;;;;;21.98;13.25;;;;;;;;;;5079622;28;20195;-47
2022/10/11 09:04:50;;;;;;;22.30;13.15;;;;;;;;;;5047667;28;20230;-48
2022/10/11 09:07:26;;;;;;;18.95;13.07;;;;;;;;;;5074298;28;20692;-47
2022/10/11 09:10:05;;;;;;;20.77;12.38;;;;;;;;;;5074857;28;20283;-47
2022/10/11 09:12:48;;;;;;;23.02;13.27;;;;;;;;;;5059624;28;20207;-50
2022/10/11 09:15:30;;;;;;;23.08;13.98;;;;;;;;;;5057664;28;20202;-50
2022/10/11 09:18:08;;;;;;;21.42;12.73;;;;;;;;;;5084924;28;20202;-48
2022/10/11 09:20:46;;;;;;;22.23;13.13;;;;;;;;;;5081960;28;20203;-51
2022/10/11 09:23:41;;;;;;;22.30;13.57;;;;;;;;;;5065732;28;20303;-51
2022/10/11 09:26:13;;;;;;;20.33;14.15;;;;;;;;;;5085043;28;20199;-47
2022/10/11 09:28:55;;;;;;;20.85;13.77;;;;;;;;;;5065620;28;20253;-47
2022/10/11 09:31:28;;;;;;;25.88;15.40;;;;;;;;;;5069350;28;20183;-49
2022/10/11 09:33:55;;;;;;;25.80;15.63;;;;;;;;;;5068108;28;20330;-48
2022/10/11 09:36:35;;;;;;;26.88;15.32;;;;;;;;;;5070578;28;20651;-48
2022/10/11 09:39:28;;;;;;;24.73;15.77;;;;;;;;;;5072965;28;20271;-48
2022/10/11 09:42:06;;;;;;;25.10;15.60;;;;;;;;;;5085364;28;20254;-50
2022/10/11 09:44:38;;;;;;;29.13;17.08;;;;;;;;;;5098188;28;20213;-48
2022/10/11 09:47:06;;;;;;;29.20;16.83;;;;;;;;;;5080750;28;20275;-47
2022/10/11 09:49:46;;;;;;;24.73;16.23;;;;;;;;;;5098412;28;20233;-47
2022/10/11 09:52:16;;;;;;;26.35;15.68;;;;;;;;;;5080535;28;20194;-50
2022/10/11 09:54:45;;;;;;;23.27;14.90;;;;;;;;;;5098076;28;20206;-50
2022/10/11 09:57:25;;;;;;;27.10;15.40;;;;;;;;;;5097916;28;20199;-47
2022/10/11 10:00:10;;;;;;;24.13;15.90;;;;;;;;;;5098306;28;20198;-50
2022/10/11 10:02:43;;;;;;;21.70;15.63;;;;;;;;;;5080718;28;20203;-47
2022/10/11 10:05:10;;;;;;;27.60;15.73;;;;;;;;;;5097929;28;20304;-48
2022/10/11 10:07:39;;;;;;;31.58;17.90;;;;;;;;;;5097800;28;20226;-47
2022/10/11 10:10:27;;;;;;;28.63;16.70;;;;;;;;;;5097927;28;20503;-48
2022/10/11 10:12:58;;;;;;;27.05;15.57;;;;;;;;;;5098101;28;20213;-50
2022/10/11 10:15:29;;;;;;;27.58;15.82;;;;;;;;;;5097749;28;20218;-49
2022/10/11 10:17:56;;;;;;;25.77;15.98;;;;;;;;;;5097715;28;20673;-49
2022/10/11 10:20:30;;;;;;;29.70;16.58;;;;;;;;;;5097485;28;20679;-48
2022/10/11 10:23:03;;;;;;;29.73;16.60;;;;;;;;;;5080882;28;20186;-47
2022/10/11 10:25:33;;;;;;;23.27;16.33;;;;;;;;;;5097529;28;20232;-48
2022/10/11 10:28:23;;;;;;;27.42;16.13;;;;;;;;;;5097426;28;20241;-47
2022/10/11 10:30:55;;;;;;;26.23;16.25;;;;;;;;;;5097554;28;20198;-49
2022/10/11 10:33:33;;;;;;;23.88;16.30;;;;;;;;;;5097457;28;20556;-49
2022/10/11 10:36:14;;;;;;;31.92;16.20;;;;;;;;;;5078839;28;20581;-49
2022/10/11 10:38:58;;;;;;;24.27;16.40;;;;;;;;;;5080071;28;20210;-47
2022/10/11 10:41:25;;;;;;;36.53;17.38;;;;;;;;;;5097197;28;20223;-49
2022/10/11 10:43:56;;;;;;;22.00;16.02;;;;;;;;;;5097206;28;20195;-47
2022/10/11 10:46:46;;;;;;;27.50;15.25;;;;;;;;;;5080022;28;20195;-47
2022/10/11 10:49:28;;;;;;;24.15;16.67;;;;;;;;;;5079801;28;20215;-49
2022/10/11 10:52:21;;;;;;;24.40;16.42;;;;;;;;;;5082623;28;20202;-47
2022/10/11 10:55:03;;;;;;;25.83;16.55;;;;;;;;;;5090519;28;20195;-49
2022/10/11 10:57:51;;;;;;;20.83;15.25;;;;;;;;;;5061097;28;20220;-50
2022/10/11 11:00:20;;;;;;;27.35;16.65;;;;;;;;;;5085854;28;20192;-48
2022/10/11 11:02:53;;;;;;;24.17;16.33;;;;;;;;;;5062992;28;20265;-51
2022/10/11 11:05:47;;;;;;;25.05;15.85;;;;;;;;;;5082696;28;20528;-48
2022/10/11 11:08:29;;;;;;;23.48;15.77;;;;;;;;;;5065871;28;20203;-49
2022/10/11 11:11:07;;;;;;;27.42;15.45;;;;;;;;;;5084524;28;20188;-51
2022/10/11 11:13:55;;;;;;;27.42;16.48;;;;;;;;;;5062722;28;20692;-49
2022/10/11 11:16:45;;;;;;;26.17;16.30;;;;;;;;;;5061943;28;20192;-50
2022/10/11 11:19:29;;;;;;;29.38;15.55;;;;;;;;;;5083953;28;20253;-49
2022/10/11 11:22:10;;;;;;;25.33;16.35;;;;;;;;;;5057048;28;20200;-49
2022/10/11 11:24:58;;;;;;;27.50;16.20;;;;;;;;;;5065742;28;20219;-54
2022/10/11 11:27:52;;;;;;;19.30;13.80;;;;;;;;;;5080137;28;20568;-48
2022/10/11 11:30:22;;;;;;;29.02;14.60;;;;;;;;;;5073594;28;20289;-49
2022/10/11 11:33:01;;;;;;;24.50;14.98;;;;;;;;;;5068647;28;20191;-49
2022/10/11 11:35:36;;;;;;;25.63;15.55;;;;;;;;;;5084043;28;20179;-50
2022/10/11 11:38:11;;;;;;;22.70;12.57;;;;;;;;;;5064888;28;20203;-47
2022/10/11 11:40:48;;;;;;;21.98;11.63;;;;;;;;;;5057361;28;20247;-48
2022/10/11 11:43:25;;;;;;;15.57;10.90;;;;;;;;;;5081824;28;20240;-48
2022/10/11 11:46:03;;;;;;;24.92;12.48;;;;;;;;;;5062674;28;20301;-47
2022/10/11 11:48:30;;;;;;;17.08;10.35;;;;;;;;;;5067955;28;20546;-49
2022/10/11 11:51:16;;;;;;;18.25;11.63;;;;;;;;;;5084030;28;20202;-48
2022/10/11 11:53:47;;;;;;;17.13;11.38;;;;;;;;;;5084830;28;20232;-47
2022/10/11 11:56:32;;;;;;;15.32;9.95;;;;;;;;;;5081524;28;20260;-53
2022/10/11 11:59:05;;;;;;;15.65;10.68;;;;;;;;;;5060869;28;20207;-50
2022/10/11 12:01:46;;;;;;;23.27;12.55;;;;;;;;;;5062520;28;20183;-48
2022/10/11 12:04:30;;;;;;;23.75;10.77;;;;;;;;;;5080768;28;20650;-47
2022/10/11 12:07:03;;;;;;;18.98;9.90;;;;;;;;;;5060903;28;20196;-52
2022/10/11 12:09:44;;;;;;;16.25;9.60;;;;;;;;;;5083696;28;20545;-47
2022/10/11 12:12:29;;;;;;;19.02;10.05;;;;;;;;;;5074569;28;20198;-53
2022/10/11 12:15:04;;;;;;;19.05;9.30;;;;;;;;;;5064942;28;20191;-49
2022/10/11 12:17:31;;;;;;;15.85;10.85;;;;;;;;;;5062710;28;20625;-50
2022/10/11 12:20:07;;;;;;;17.70;10.43;;;;;;;;;;5084584;28;20203;-51
2022/10/11 12:22:36;;;;;;;17.27;9.85;;;;;;;;;;5088706;28;20286;-48
2022/10/11 12:25:09;;;;;;;26.77;11.40;;;;;;;;;;5094554;28;20628;-47
2022/10/11 12:27:56;;;;;;;21.35;10.00;;;;;;;;;;5095427;28;20213;-48
2022/10/11 12:30:45;;;;;;;17.38;10.60;;;;;;;;;;5083101;28;20260;-49
2022/10/11 12:33:20;;;;;;;18.30;10.25;;;;;;;;;;5079803;28;20228;-48
2022/10/11 12:35:53;;;;;;;16.92;10.05;;;;;;;;;;5082167;28;20206;-49
2022/10/11 12:38:38;;;;;;;16.95;9.63;;;;;;;;;;5074677;28;20196;-51
2022/10/11 12:41:08;;;;;;;17.00;9.77;;;;;;;;;;5073302;28;20575;-49
2022/10/11 12:44:13;;;;;;;16.48;10.65;;;;;;;;;;5074213;28;20207;-49
2022/10/11 12:46:56;;;;;;;17.75;11.20;;;;;;;;;;5075266;28;20183;-47
2022/10/11 12:49:26;;;;;;;15.77;10.40;;;;;;;;;;5058032;28;20545;-50
2022/10/11 12:52:03;;;;;;;16.52;10.38;;;;;;;;;;5077869;28;20192;-50
2022/10/11 12:57:58;;;;;;;18.02;10.20;;;;;;;;;;1055869;23;20659;-50
2022/10/11 13:04:04;;;;;;;26.92;12.18;;;;;;;;;;4609681;23;20313;-50
2022/10/11 13:06:36;;;;;;;18.02;11.35;;;;;;;;;;4986759;28;20221;-57
2022/10/11 13:09:09;;;;;;;18.70;10.77;;;;;;;;;;4989907;28;20627;-57
2022/10/11 13:11:40;;;;;;;19.35;11.32;;;;;;;;;;4989182;28;20234;-59
2022/10/11 13:14:10;;;;;;;20.45;12.10;;;;;;;;;;4991370;28;20292;-58
2022/10/11 13:17:03;;;;;;;16.15;10.82;;;;;;;;;;4991202;28;20759;-60
2022/10/11 13:19:33;;;;;;;19.05;10.18;;;;;;;;;;4979763;28;20838;-59
2022/10/11 13:22:14;;;;;;;15.32;9.25;;;;;;;;;;4984287;28;20337;-59
2022/10/11 13:24:41;;;;;;;13.75;8.82;;;;;;;;;;4986127;28;20388;-59
2022/10/11 13:27:28;;;;;;;11.75;7.63;;;;;;;;;;4989533;28;20252;-60
2022/10/11 13:29:59;;;;;;;13.18;6.80;;;;;;;;;;4988264;28;20653;-59
2022/10/11 13:32:29;;;;;;;12.38;6.75;;;;;;;;;;4991037;28;20218;-58
2022/10/11 13:35:00;;;;;;;9.25;6.75;;;;;;;;;;4990073;28;20288;-61
2022/10/11 13:37:28;;;;;;;13.75;7.20;;;;;;;;;;4993950;28;20234;-59
2022/10/11 13:39:56;;;;;;;15.25;7.80;;;;;;;;;;5011110;28;20227;-61
2022/10/11 13:42:29;;;;;;;9.05;6.00;;;;;;;;;;5072594;28;20233;-59
2022/10/11 13:44:58;;;;;;;11.93;6.28;;;;;;;;;;5074088;28;20219;-58
2022/10/11 13:47:27;;;;;;;13.10;6.43;;;;;;;;;;5092255;28;20705;-59
2022/10/11 13:50:07;;;;;;;13.73;7.03;;;;;;;;;;5087016;28;20237;-58
2022/10/11 13:52:35;;;;;;;14.68;7.18;;;;;;;;;;5092075;28;20215;-58
2022/10/11 13:55:02;;;;;;;13.50;6.88;;;;;;;;;;5085709;28;20219;-59
2022/10/11 13:57:37;;;;;;;10.18;6.95;;;;;;;;;;5092584;28;20279;-61
2022/10/11 14:00:09;;;;;;;8.90;7.00;;;;;;;;;;5093501;28;20234;-59
2022/10/11 14:02:37;;;;;;;12.20;7.10;;;;;;;;;;5092362;28;20241;-60
2022/10/11 14:05:05;;;;;;;10.10;6.68;;;;;;;;;;5093263;28;20218;-58
2022/10/11 14:07:36;;;;;;;13.40;7.43;;;;;;;;;;5091877;28;20300;-60
2022/10/11 14:10:04;;;;;;;15.43;6.97;;;;;;;;;;5093006;28;20253;-59
2022/10/11 14:12:39;;;;;;;12.13;7.10;;;;;;;;;;5090091;28;20223;-62
2022/10/11 14:15:23;;;;;;;7.75;6.30;;;;;;;;;;5077946;28;20206;-57
2022/10/11 14:17:50;;;;;;;10.73;6.55;;;;;;;;;;5091385;28;20225;-58
2022/10/11 14:20:28;;;;;;;12.88;6.97;;;;;;;;;;5077342;28;20242;-53
2022/10/11 14:22:59;;;;;;;10.90;5.90;;;;;;;;;;5078467;28;20233;-58
2022/10/11 14:25:26;;;;;;;12.50;6.22;;;;;;;;;;5089375;28;20302;-54
2022/10/11 14:27:56;;;;;;;10.15;6.00;;;;;;;;;;5073000;28;20219;-61
2022/10/11 14:30:24;;;;;;;10.55;6.10;;;;;;;;;;5090709;28;20230;-59
2022/10/11 14:32:55;;;;;;;11.43;5.57;;;;;;;;;;5076976;28;20222;-59
2022/10/11 14:35:28;;;;;;;8.95;5.97;;;;;;;;;;5077108;28;20218;-57
2022/10/11 14:37:55;;;;;;;10.90;5.57;;;;;;;;;;5074894;28;20707;-58
2022/10/11 14:40:24;;;;;;;10.18;6.28;;;;;;;;;;5094667;28;20218;-57
2022/10/11 14:42:52;;;;;;;12.93;6.38;;;;;;;;;;5089601;28;20215;-57
2022/10/11 14:45:20;;;;;;;8.02;5.78;;;;;;;;;;5090783;28;21050;-59
2022/10/11 14:47:48;;;;;;;13.63;6.43;;;;;;;;;;5044540;28;20664;-59
2022/10/11 14:50:20;;;;;;;10.23;5.63;;;;;;;;;;5094738;28;20230;-57
2022/10/11 14:52:47;;;;;;;12.82;6.10;;;;;;;;;;5074737;28;20215;-59
2022/10/11 14:55:14;;;;;;;8.48;4.57;;;;;;;;;;5095550;28;20233;-59
2022/10/11 14:57:41;;;;;;;7.55;4.43;;;;;;;;;;5095468;28;20226;-59
2022/10/11 15:00:21;;;;;;;8.90;4.70;;;;;;;;;;5076281;28;20314;-58
2022/10/11 15:02:53;;;;;;;8.05;4.32;;;;;;;;;;5089575;28;20274;-59